createdAt,value
2022-08-07T00:00:07.109Z,1020.54
2022-08-07T00:05:07.025Z,1020.53
2022-08-07T00:10:26.359Z,1020.55
2022-08-07T00:15:09.363Z,1020.59
2022-08-07T00:20:09.026Z,1020.58
2022-08-07T00:25:16.628Z,1020.62
2022-08-07T00:30:27.644Z,1020.61
2022-08-07T00:35:11.852Z,1020.57
2022-08-07T00:40:11.391Z,1020.53
2022-08-07T00:45:16.496Z,1020.47
2022-08-07T00:50:20.193Z,1020.45
2022-08-07T00:55:14.360Z,1020.47
2022-08-07T01:00:14.196Z,1020.47
2022-08-07T01:05:19.447Z,1020.51
2022-08-07T01:10:16.563Z,1020.50
2022-08-07T01:15:17.639Z,1020.48
2022-08-07T01:20:17.460Z,1020.48
2022-08-07T01:25:54.580Z,1020.46
2022-08-07T01:30:19.387Z,1020.43
2022-08-07T01:35:19.093Z,1020.44
2022-08-07T01:40:20.699Z,1020.43
2022-08-07T01:45:22.993Z,1020.40
2022-08-07T01:50:28.626Z,1020.45
2022-08-07T01:55:24.122Z,1020.51
2022-08-07T02:00:28.992Z,1020.51
2022-08-07T02:05:48.407Z,1020.52
2022-08-07T02:10:24.631Z,1020.52
2022-08-07T02:15:26.409Z,1020.48
2022-08-07T02:20:25.385Z,1020.47
2022-08-07T02:26:10.275Z,1020.44
2022-08-07T02:30:27.385Z,1020.48
2022-08-07T02:36:27.011Z,1020.50
2022-08-07T02:40:30.621Z,1020.46
2022-08-07T02:46:00.694Z,1020.47
2022-08-07T02:50:30.826Z,1020.45
2022-08-07T02:56:03.235Z,1020.43
2022-08-07T03:00:31.245Z,1020.41
2022-08-07T03:05:35.909Z,1020.39
2022-08-07T03:10:32.466Z,1020.40
2022-08-07T03:15:55.641Z,1020.42
2022-08-07T03:20:33.654Z,1020.44
2022-08-07T03:25:40.489Z,1020.47
2022-08-07T03:30:34.906Z,1020.46
2022-08-07T03:35:43.524Z,1020.46
2022-08-07T03:40:36.842Z,1020.46
2022-08-07T03:45:43.278Z,1020.51
2022-08-07T03:50:37.600Z,1020.52
2022-08-07T03:55:58.303Z,1020.56
2022-08-07T04:00:38.895Z,1020.57
2022-08-07T04:12:27.436Z,1020.55
2022-08-07T04:16:30.840Z,1020.54
2022-08-07T04:21:31.189Z,1020.55
2022-08-07T04:26:30.085Z,1020.56
2022-08-07T04:31:39.187Z,1020.55
2022-08-07T04:36:32.394Z,1020.58
2022-08-07T04:41:32.157Z,1020.61
2022-08-07T04:46:34.824Z,1020.62
2022-08-07T04:51:33.067Z,1020.65
2022-08-07T04:58:11.959Z,1020.69
2022-08-07T05:01:35.440Z,1020.71
2022-08-07T05:06:43.710Z,1020.70
2022-08-07T05:11:58.301Z,1020.69
2022-08-07T05:16:37.281Z,1020.69
2022-08-07T05:22:00.444Z,1020.72
2022-08-07T05:26:38.412Z,1020.76
2022-08-07T05:31:38.030Z,1020.81
2022-08-07T05:36:39.200Z,1020.83
2022-08-07T05:42:00.554Z,1020.81
2022-08-07T05:46:41.007Z,1020.84
2022-08-07T05:51:40.825Z,1020.87
2022-08-07T05:56:41.602Z,1020.88
2022-08-07T06:01:42.361Z,1020.84
2022-08-07T06:06:46.099Z,1020.88
2022-08-07T06:11:43.763Z,1020.90
2022-08-07T06:16:44.427Z,1020.90
2022-08-07T06:22:16.919Z,1020.90
2022-08-07T06:26:46.528Z,1020.92
2022-08-07T06:31:49.930Z,1020.90
2022-08-07T06:36:47.318Z,1020.89
2022-08-07T06:42:00.941Z,1020.94
2022-08-07T06:46:53.541Z,1021.01
2022-08-07T06:51:50.406Z,1021.03
2022-08-07T06:56:50.547Z,1021.02
2022-08-07T07:01:50.925Z,1021.01
2022-08-07T07:07:00.131Z,1020.99
2022-08-07T07:12:08.672Z,1021.00
2022-08-07T07:16:53.472Z,1020.99
2022-08-07T07:22:12.160Z,1020.99
2022-08-07T07:26:54.446Z,1021.00
2022-08-07T07:31:54.233Z,1020.96
2022-08-07T07:36:54.912Z,1020.90
2022-08-07T07:42:13.251Z,1020.87
2022-08-07T07:47:04.340Z,1020.85
2022-08-07T07:51:59.714Z,1020.80
2022-08-07T07:56:57.645Z,1020.76
2022-08-07T08:02:03.811Z,1020.69
2022-08-07T08:07:00.697Z,1020.67
2022-08-07T08:12:02.803Z,1020.65
2022-08-07T08:17:55.893Z,1020.60
2022-08-07T08:22:03.244Z,1020.58
2022-08-07T08:27:01.509Z,1020.55
2022-08-07T08:32:18.227Z,1020.53
2022-08-07T08:37:03.683Z,1020.50
2022-08-07T08:42:04.152Z,1020.51
2022-08-07T08:47:03.974Z,1020.51
2022-08-07T08:52:14.470Z,1020.46
2022-08-07T08:57:06.174Z,1020.40
2022-08-07T09:02:08.982Z,1020.37
2022-08-07T09:07:06.375Z,1020.40
2022-08-07T09:12:30.592Z,1020.39
2022-08-07T09:17:08.454Z,1020.34
2022-08-07T09:22:23.021Z,1020.30
2022-08-07T09:27:12.082Z,1020.21
2022-08-07T09:32:17.244Z,1020.23
2022-08-07T09:37:11.054Z,1020.19
2022-08-07T09:42:16.951Z,1020.16
2022-08-07T09:47:51.687Z,1020.09
2022-08-07T09:52:33.503Z,1020.09
2022-08-07T09:57:13.732Z,1020.06
2022-08-07T10:02:13.339Z,1019.96
2022-08-07T10:07:26.024Z,1019.93
2022-08-07T10:12:21.379Z,1019.84
2022-08-07T10:17:16.562Z,1019.79
2022-08-07T10:22:17.157Z,1019.78
2022-08-07T10:27:16.536Z,1019.72
2022-08-07T10:32:36.847Z,1019.62
2022-08-07T10:37:18.769Z,1019.55
2022-08-07T10:42:20.810Z,1019.50
2022-08-07T10:47:19.141Z,1019.48
2022-08-07T10:52:20.737Z,1019.41
2022-08-07T10:57:22.054Z,1019.35
2022-08-07T11:02:33.038Z,1019.31
2022-08-07T11:07:56.552Z,1019.25
2022-08-07T11:12:32.102Z,1019.22
2022-08-07T11:17:43.290Z,1019.15
2022-08-07T11:22:32.468Z,1019.12
2022-08-07T11:27:24.710Z,1019.08
2022-08-07T11:32:26.533Z,1019.05
2022-08-07T11:37:25.233Z,1019.05
2022-08-07T11:42:29.938Z,1018.98
2022-08-07T11:47:38.538Z,1018.87
2022-08-07T11:52:29.017Z,1018.83
2022-08-07T11:57:59.704Z,1018.84
2022-08-07T12:02:30.384Z,1018.80
2022-08-07T12:07:38.954Z,1018.73
2022-08-07T12:12:30.569Z,1018.65
2022-08-07T12:17:33.928Z,1018.65
2022-08-07T12:22:37.501Z,1018.64
2022-08-07T12:28:08.667Z,1018.60
2022-08-07T12:32:33.327Z,1018.53
2022-08-07T12:38:09.599Z,1018.52
2022-08-07T12:42:34.529Z,1018.49
2022-08-07T12:47:37.756Z,1018.44
2022-08-07T12:52:35.971Z,1018.39
2022-08-07T12:57:39.328Z,1018.36
2022-08-07T13:02:37.212Z,1018.34
2022-08-07T13:08:12.947Z,1018.27
2022-08-07T13:12:38.385Z,1018.21
2022-08-07T13:17:41.007Z,1018.17
2022-08-07T13:22:39.222Z,1018.13
2022-08-07T13:28:14.551Z,1018.10
2022-08-07T13:32:41.627Z,1018.04
2022-08-07T13:37:41.478Z,1018.03
2022-08-07T13:42:42.159Z,1017.99
2022-08-07T13:48:06.767Z,1017.93
2022-08-07T13:52:44.634Z,1017.87
2022-08-07T13:57:57.921Z,1017.81
2022-08-07T14:02:50.813Z,1017.78
2022-08-07T14:08:00.014Z,1017.75
2022-08-07T14:12:53.966Z,1017.71
2022-08-07T14:18:12.888Z,1017.68
2022-08-07T14:22:48.175Z,1017.62
2022-08-07T14:28:12.189Z,1017.58
2022-08-07T14:32:49.428Z,1017.51
2022-08-07T14:38:05.463Z,1017.46
2022-08-07T14:47:51.294Z,1017.42
2022-08-07T14:52:51.753Z,1017.40
2022-08-07T14:57:54.657Z,1017.37
2022-08-07T15:02:56.709Z,1017.33
2022-08-07T15:12:54.997Z,1017.28
2022-08-07T15:17:54.906Z,1017.26
2022-08-07T15:22:54.430Z,1017.25
2022-08-07T15:28:32.453Z,1017.20
2022-08-07T15:33:04.186Z,1017.15
2022-08-07T15:42:57.667Z,1017.11
2022-08-07T15:48:00.426Z,1017.08
2022-08-07T15:52:58.203Z,1017.05
2022-08-07T15:58:00.348Z,1017.04
2022-08-07T16:02:59.637Z,1017.00
2022-08-07T16:08:32.105Z,1016.95
2022-08-07T16:13:05.560Z,1016.92
2022-08-07T16:18:03.800Z,1016.89
2022-08-07T16:23:11.893Z,1016.91
2022-08-07T16:28:02.973Z,1016.92
2022-08-07T16:34:01.626Z,1016.92
2022-08-07T16:38:09.487Z,1016.89
2022-08-07T16:43:05.775Z,1016.88
2022-08-07T16:48:05.572Z,1016.85
2022-08-07T16:53:55.407Z,1016.84
2022-08-07T16:58:08.251Z,1016.86
2022-08-07T17:03:07.584Z,1016.87
2022-08-07T17:08:09.178Z,1016.85
2022-08-07T17:13:09.204Z,1016.85
2022-08-07T17:18:13.998Z,1016.85
2022-08-07T17:23:12.986Z,1016.88
2022-08-07T17:28:11.887Z,1016.89
2022-08-07T17:34:10.311Z,1016.92
2022-08-07T17:38:33.164Z,1016.94
2022-08-07T17:43:18.294Z,1016.96
2022-08-07T17:48:13.807Z,1016.93
2022-08-07T17:53:55.658Z,1016.92
2022-08-07T17:58:30.660Z,1016.93
2022-08-07T18:03:18.520Z,1016.92
2022-08-07T18:08:24.414Z,1016.90
2022-08-07T18:13:18.023Z,1016.91
2022-08-07T18:18:44.993Z,1016.90
2022-08-07T18:23:42.301Z,1016.90
2022-08-07T18:28:35.798Z,1016.94
2022-08-07T18:33:21.489Z,1016.96
2022-08-07T18:38:57.914Z,1016.99
2022-08-07T18:43:42.994Z,1017.01
2022-08-07T18:50:32.923Z,1017.04
2022-08-07T18:53:36.838Z,1017.07
2022-08-07T18:58:23.425Z,1017.11
2022-08-07T19:03:35.371Z,1017.16
2022-08-07T19:08:25.270Z,1017.20
2022-08-07T19:13:24.766Z,1017.21
2022-08-07T19:18:34.545Z,1017.21
2022-08-07T19:23:57.053Z,1017.26
2022-08-07T19:28:57.464Z,1017.27
2022-08-07T19:33:35.257Z,1017.29
2022-08-07T19:38:28.308Z,1017.33
2022-08-07T19:43:49.290Z,1017.40
2022-08-07T19:48:29.763Z,1017.44
2022-08-07T19:54:32.314Z,1017.45
2022-08-07T20:15:58.733Z,1017.54
2022-08-07T20:20:58.108Z,1017.56
2022-08-07T20:25:58.824Z,1017.59
2022-08-07T20:31:00.445Z,1017.62
2022-08-07T20:36:03.099Z,1017.65
2022-08-07T20:41:01.067Z,1017.65
2022-08-07T20:46:26.962Z,1017.66
2022-08-07T20:51:03.326Z,1017.65
2022-08-07T20:56:02.909Z,1017.66
2022-08-07T21:01:03.644Z,1017.66
2022-08-07T21:06:04.468Z,1017.66
2022-08-07T21:11:07.550Z,1017.69
2022-08-07T21:16:06.600Z,1017.70
2022-08-07T21:21:06.387Z,1017.70
2022-08-07T21:26:07.467Z,1017.78
2022-08-07T21:31:07.710Z,1017.80
2022-08-07T21:36:12.232Z,1017.79
2022-08-07T21:41:11.035Z,1017.77
2022-08-07T21:46:13.986Z,1017.71
2022-08-07T21:51:19.867Z,1017.68
2022-08-07T21:56:35.698Z,1017.69
2022-08-07T22:12:49.903Z,1017.73
2022-08-07T22:17:51.632Z,1017.73
2022-08-07T22:22:58.374Z,1017.74
2022-08-07T22:28:29.448Z,1017.74
2022-08-07T22:32:53.863Z,1017.75
2022-08-07T22:38:01.694Z,1017.75
2022-08-07T22:42:55.600Z,1017.80
2022-08-07T22:47:55.037Z,1017.75
2022-08-07T22:52:55.733Z,1017.77
2022-08-07T22:57:59.069Z,1017.82
2022-08-07T23:02:57.442Z,1017.82
2022-08-07T23:07:58.285Z,1017.78
2022-08-07T23:12:59.087Z,1017.79
2022-08-07T23:17:59.891Z,1017.83
2022-08-07T23:23:00.592Z,1017.88
2022-08-07T23:28:22.558Z,1017.90
2022-08-07T23:34:22.666Z,1017.90
2022-08-07T23:38:03.940Z,1017.94
2022-08-07T23:43:03.309Z,1017.91
2022-08-07T23:48:04.894Z,1017.90
2022-08-07T23:53:08.459Z,1017.88
2022-08-07T23:58:06.024Z,1017.86
